sensor_id;sensor_type;location;lat;lon;timestamp;pressure;altitude;pressure_sealevel;temperature;humidity
7433;BME280;32233;49.500;7.764;2022-11-20T00:00:04;98007.03;;;1.90;100.00
7433;BME280;32233;49.500;7.764;2022-11-20T00:02:32;98007.31;;;1.87;100.00
7433;BME280;32233;49.500;7.764;2022-11-20T00:04:58;98008.31;;;1.86;100.00
7433;BME280;32233;49.500;7.764;2022-11-20T00:07:25;98007.19;;;1.88;100.00
7433;BME280;32233;49.500;7.764;2022-11-20T00:09:52;98006.53;;;1.94;100.00
7433;BME280;32233;49.500;7.764;2022-11-20T00:12:18;97998.81;;;2.27;100.00
7433;BME280;32233;49.500;7.764;2022-11-20T00:14:45;97999.94;;;2.16;100.00
7433;BME280;32233;49.500;7.764;2022-11-20T00:17:11;97998.25;;;1.99;100.00
7433;BME280;32233;49.500;7.764;2022-11-20T00:19:38;98000.09;;;2.15;100.00
7433;BME280;32233;49.500;7.764;2022-11-20T00:22:04;98000.06;;;2.07;100.00
7433;BME280;32233;49.500;7.764;2022-11-20T00:24:30;97994.09;;;2.22;100.00
7433;BME280;32233;49.500;7.764;2022-11-20T00:26:57;97995.03;;;2.05;100.00
7433;BME280;32233;49.500;7.764;2022-11-20T00:29:23;97996.13;;;1.94;100.00
7433;BME280;32233;49.500;7.764;2022-11-20T00:31:50;97999.47;;;2.21;100.00
7433;BME280;32233;49.500;7.764;2022-11-20T00:34:17;98006.94;;;2.16;100.00
7433;BME280;32233;49.500;7.764;2022-11-20T00:36:43;97999.66;;;2.36;100.00
7433;BME280;32233;49.500;7.764;2022-11-20T00:39:10;98008.09;;;2.13;100.00
7433;BME280;32233;49.500;7.764;2022-11-20T00:41:36;98007.28;;;2.21;100.00
7433;BME280;32233;49.500;7.764;2022-11-20T00:44:03;98007.84;;;2.41;100.00
7433;BME280;32233;49.500;7.764;2022-11-20T00:46:29;98012.91;;;2.67;100.00
7433;BME280;32233;49.500;7.764;2022-11-20T00:48:57;98013.56;;;2.77;100.00
7433;BME280;32233;49.500;7.764;2022-11-20T00:51:25;98005.25;;;2.49;100.00
7433;BME280;32233;49.500;7.764;2022-11-20T00:53:55;98015.44;;;2.26;100.00
7433;BME280;32233;49.500;7.764;2022-11-20T00:56:21;98009.13;;;2.29;100.00
7433;BME280;32233;49.500;7.764;2022-11-20T00:58:48;98008.44;;;2.27;100.00
7433;BME280;32233;49.500;7.764;2022-11-20T01:01:20;98008.56;;;2.09;100.00
7433;BME280;32233;49.500;7.764;2022-11-20T01:03:48;98000.34;;;1.95;100.00
7433;BME280;32233;49.500;7.764;2022-11-20T01:08:43;97998.13;;;2.09;100.00
7433;BME280;32233;49.500;7.764;2022-11-20T01:11:13;97999.53;;;1.95;100.00
7433;BME280;32233;49.500;7.764;2022-11-20T01:13:40;97991.94;;;2.10;100.00
7433;BME280;32233;49.500;7.764;2022-11-20T01:16:09;97988.25;;;2.37;100.00
7433;BME280;32233;49.500;7.764;2022-11-20T01:18:37;97989.88;;;2.30;100.00
7433;BME280;32233;49.500;7.764;2022-11-20T01:21:12;97988.25;;;2.29;100.00
7433;BME280;32233;49.500;7.764;2022-11-20T01:23:41;97986.25;;;2.22;100.00
7433;BME280;32233;49.500;7.764;2022-11-20T01:26:14;97984.63;;;2.13;100.00
7433;BME280;32233;49.500;7.764;2022-11-20T01:28:42;97988.25;;;2.37;100.00
7433;BME280;32233;49.500;7.764;2022-11-20T01:31:13;97977.69;;;2.55;100.00
7433;BME280;32233;49.500;7.764;2022-11-20T01:33:40;97982.56;;;2.33;100.00
7433;BME280;32233;49.500;7.764;2022-11-20T01:36:08;97976.47;;;2.16;100.00
7433;BME280;32233;49.500;7.764;2022-11-20T01:38:35;97977.97;;;2.43;100.00
7433;BME280;32233;49.500;7.764;2022-11-20T01:41:02;97980.28;;;2.38;100.00
7433;BME280;32233;49.500;7.764;2022-11-20T01:43:30;97976.94;;;2.20;100.00
7433;BME280;32233;49.500;7.764;2022-11-20T01:46:03;97975.03;;;2.22;100.00
7433;BME280;32233;49.500;7.764;2022-11-20T01:48:38;97982.38;;;2.43;100.00
7433;BME280;32233;49.500;7.764;2022-11-20T01:53:48;97968.50;;;2.26;100.00
7433;BME280;32233;49.500;7.764;2022-11-20T01:56:16;97976.34;;;2.34;100.00
7433;BME280;32233;49.500;7.764;2022-11-20T01:58:54;97974.06;;;2.39;100.00
7433;BME280;32233;49.500;7.764;2022-11-20T02:01:23;97980.59;;;2.60;100.00
7433;BME280;32233;49.500;7.764;2022-11-20T02:03:50;97978.66;;;2.54;100.00
7433;BME280;32233;49.500;7.764;2022-11-20T02:06:21;97985.66;;;2.45;100.00
7433;BME280;32233;49.500;7.764;2022-11-20T02:08:51;97988.13;;;2.71;100.00
7433;BME280;32233;49.500;7.764;2022-11-20T02:11:18;97984.53;;;2.80;100.00
7433;BME280;32233;49.500;7.764;2022-11-20T02:13:45;97982.56;;;2.41;100.00
7433;BME280;32233;49.500;7.764;2022-11-20T02:16:20;97985.78;;;2.35;100.00
7433;BME280;32233;49.500;7.764;2022-11-20T02:18:48;97986.63;;;2.60;100.00
7433;BME280;32233;49.500;7.764;2022-11-20T02:21:33;97976.03;;;2.45;100.00
7433;BME280;32233;49.500;7.764;2022-11-20T02:24:15;97972.44;;;2.38;100.00
7433;BME280;32233;49.500;7.764;2022-11-20T02:26:50;97972.63;;;2.61;100.00
7433;BME280;32233;49.500;7.764;2022-11-20T02:29:24;97969.03;;;2.79;100.00
7433;BME280;32233;49.500;7.764;2022-11-20T02:31:52;97971.00;;;2.93;100.00
7433;BME280;32233;49.500;7.764;2022-11-20T02:34:21;97968.38;;;2.77;100.00
7433;BME280;32233;49.500;7.764;2022-11-20T02:36:48;97971.34;;;2.98;100.00
7433;BME280;32233;49.500;7.764;2022-11-20T02:39:16;97965.13;;;2.99;100.00
7433;BME280;32233;49.500;7.764;2022-11-20T02:41:46;97962.53;;;2.75;100.00
7433;BME280;32233;49.500;7.764;2022-11-20T02:44:12;97963.00;;;2.78;100.00
7433;BME280;32233;49.500;7.764;2022-11-20T02:46:39;97962.66;;;2.81;100.00
7433;BME280;32233;49.500;7.764;2022-11-20T02:49:06;97956.16;;;2.77;100.00
7433;BME280;32233;49.500;7.764;2022-11-20T02:51:32;97958.75;;;2.61;100.00
7433;BME280;32233;49.500;7.764;2022-11-20T02:53:59;97966.94;;;2.82;100.00
7433;BME280;32233;49.500;7.764;2022-11-20T02:56:26;97968.22;;;2.94;100.00
7433;BME280;32233;49.500;7.764;2022-11-20T02:58:53;97958.41;;;2.96;100.00
7433;BME280;32233;49.500;7.764;2022-11-20T03:01:19;97957.13;;;2.84;100.00
7433;BME280;32233;49.500;7.764;2022-11-20T03:03:46;97956.81;;;2.95;100.00
7433;BME280;32233;49.500;7.764;2022-11-20T03:06:18;97954.03;;;2.72;100.00
7433;BME280;32233;49.500;7.764;2022-11-20T03:08:44;97952.88;;;3.08;100.00
7433;BME280;32233;49.500;7.764;2022-11-20T03:11:11;97962.31;;;3.09;100.00
7433;BME280;32233;49.500;7.764;2022-11-20T03:13:37;97963.97;;;2.85;100.00
7433;BME280;32233;49.500;7.764;2022-11-20T03:16:16;97963.50;;;2.90;100.00
7433;BME280;32233;49.500;7.764;2022-11-20T03:18:43;97964.81;;;2.78;100.00
7433;BME280;32233;49.500;7.764;2022-11-20T03:21:11;97958.09;;;3.08;100.00
7433;BME280;32233;49.500;7.764;2022-11-20T03:23:39;97954.50;;;3.01;100.00
7433;BME280;32233;49.500;7.764;2022-11-20T03:28:50;97949.44;;;2.99;100.00
7433;BME280;32233;49.500;7.764;2022-11-20T03:31:19;97947.66;;;2.83;100.00
7433;BME280;32233;49.500;7.764;2022-11-20T03:33:47;97957.13;;;2.92;100.00
7433;BME280;32233;49.500;7.764;2022-11-20T03:36:15;97952.06;;;2.99;100.00
7433;BME280;32233;49.500;7.764;2022-11-20T03:38:42;97947.97;;;3.05;100.00
7433;BME280;32233;49.500;7.764;2022-11-20T03:41:14;97952.53;;;3.11;100.00
7433;BME280;32233;49.500;7.764;2022-11-20T03:43:41;97952.06;;;3.07;100.00
7433;BME280;32233;49.500;7.764;2022-11-20T03:46:08;97947.16;;;3.12;100.00
7433;BME280;32233;49.500;7.764;2022-11-20T03:48:34;97938.91;;;3.40;100.00
7433;BME280;32233;49.500;7.764;2022-11-20T03:53:35;97947.88;;;3.45;100.00
7433;BME280;32233;49.500;7.764;2022-11-20T03:56:01;97940.03;;;3.45;100.00
7433;BME280;32233;49.500;7.764;2022-11-20T03:58:28;97933.38;;;3.35;100.00
7433;BME280;32233;49.500;7.764;2022-11-20T04:00:55;97938.44;;;3.36;100.00
7433;BME280;32233;49.500;7.764;2022-11-20T04:03:21;97939.78;;;3.24;100.00
7433;BME280;32233;49.500;7.764;2022-11-20T04:05:48;97946.06;;;3.46;100.00
7433;BME280;32233;49.500;7.764;2022-11-20T04:08:14;97942.81;;;3.52;100.00
7433;BME280;32233;49.500;7.764;2022-11-20T04:10:41;97946.41;;;3.51;100.00
7433;BME280;32233;49.500;7.764;2022-11-20T04:13:07;97948.16;;;3.59;100.00
7433;BME280;32233;49.500;7.764;2022-11-20T04:15:34;97954.03;;;3.61;100.00
7433;BME280;32233;49.500;7.764;2022-11-20T04:18:04;97948.69;;;3.46;100.00
7433;BME280;32233;49.500;7.764;2022-11-20T04:20:30;97942.13;;;3.50;100.00
7433;BME280;32233;49.500;7.764;2022-11-20T04:22:57;97943.47;;;3.38;100.00
7433;BME280;32233;49.500;7.764;2022-11-20T04:25:23;97943.31;;;3.47;100.00
7433;BME280;32233;49.500;7.764;2022-11-20T04:27:50;97941.97;;;3.60;100.00
7433;BME280;32233;49.500;7.764;2022-11-20T04:30:16;97942.72;;;3.77;100.00
7433;BME280;32233;49.500;7.764;2022-11-20T04:32:43;97941.41;;;3.72;100.00
7433;BME280;32233;49.500;7.764;2022-11-20T04:35:09;97939.75;;;3.80;100.00
7433;BME280;32233;49.500;7.764;2022-11-20T04:37:36;97943.78;;;3.90;100.00
7433;BME280;32233;49.500;7.764;2022-11-20T04:40:03;97943.59;;;4.00;100.00
7433;BME280;32233;49.500;7.764;2022-11-20T04:42:29;97937.13;;;4.11;100.00
7433;BME280;32233;49.500;7.764;2022-11-20T04:44:56;97933.94;;;4.23;100.00
7433;BME280;32233;49.500;7.764;2022-11-20T04:47:23;97924.66;;;4.21;100.00
7433;BME280;32233;49.500;7.764;2022-11-20T04:49:49;97916.50;;;4.16;100.00
7433;BME280;32233;49.500;7.764;2022-11-20T04:52:16;97924.34;;;4.16;100.00
7433;BME280;32233;49.500;7.764;2022-11-20T04:54:43;97918.06;;;4.02;100.00
7433;BME280;32233;49.500;7.764;2022-11-20T04:57:09;97922.00;;;3.98;100.00
7433;BME280;32233;49.500;7.764;2022-11-20T04:59:40;97919.00;;;4.09;100.00
7433;BME280;32233;49.500;7.764;2022-11-20T05:02:06;97921.38;;;4.19;100.00
7433;BME280;32233;49.500;7.764;2022-11-20T05:04:33;97926.00;;;4.17;100.00
7433;BME280;32233;49.500;7.764;2022-11-20T05:06:59;97920.22;;;4.44;100.00
7433;BME280;32233;49.500;7.764;2022-11-20T05:09:26;97916.31;;;4.40;100.00
7433;BME280;32233;49.500;7.764;2022-11-20T05:11:52;97924.25;;;4.55;100.00
7433;BME280;32233;49.500;7.764;2022-11-20T05:14:19;97925.13;;;4.47;100.00
7433;BME280;32233;49.500;7.764;2022-11-20T05:16:45;97915.78;;;4.68;100.00
7433;BME280;32233;49.500;7.764;2022-11-20T05:19:12;97913.81;;;4.70;100.00
7433;BME280;32233;49.500;7.764;2022-11-20T05:21:38;97917.34;;;4.77;100.00
7433;BME280;32233;49.500;7.764;2022-11-20T05:24:05;97912.09;;;4.77;100.00
7433;BME280;32233;49.500;7.764;2022-11-20T05:26:32;97908.38;;;4.94;100.00
7433;BME280;32233;49.500;7.764;2022-11-20T05:28:58;97911.94;;;4.93;100.00
7433;BME280;32233;49.500;7.764;2022-11-20T05:31:26;97914.75;;;4.92;100.00
7433;BME280;32233;49.500;7.764;2022-11-20T05:33:55;97908.44;;;5.01;100.00
7433;BME280;32233;49.500;7.764;2022-11-20T05:36:23;97911.72;;;5.03;100.00
7433;BME280;32233;49.500;7.764;2022-11-20T05:38:49;97919.03;;;5.08;100.00
7433;BME280;32233;49.500;7.764;2022-11-20T05:41:20;97914.13;;;5.05;100.00
7433;BME280;32233;49.500;7.764;2022-11-20T05:43:48;97911.63;;;5.11;100.00
7433;BME280;32233;49.500;7.764;2022-11-20T05:46:18;97907.56;;;5.09;100.00
7433;BME280;32233;49.500;7.764;2022-11-20T05:48:50;97910.19;;;5.24;100.00
7433;BME280;32233;49.500;7.764;2022-11-20T05:51:18;97912.72;;;5.17;100.00
7433;BME280;32233;49.500;7.764;2022-11-20T05:53:45;97896.75;;;5.27;100.00
7433;BME280;32233;49.500;7.764;2022-11-20T05:56:19;97909.84;;;5.27;100.00
7433;BME280;32233;49.500;7.764;2022-11-20T05:58:47;97912.63;;;5.25;100.00
7433;BME280;32233;49.500;7.764;2022-11-20T06:01:18;97908.00;;;5.12;100.00
7433;BME280;32233;49.500;7.764;2022-11-20T06:03:45;97921.06;;;4.97;100.00
7433;BME280;32233;49.500;7.764;2022-11-20T06:06:15;97911.97;;;5.08;100.00
7433;BME280;32233;49.500;7.764;2022-11-20T06:08:42;97912.78;;;5.09;100.00
7433;BME280;32233;49.500;7.764;2022-11-20T06:11:10;97917.41;;;5.07;100.00
7433;BME280;32233;49.500;7.764;2022-11-20T06:13:38;97918.69;;;5.11;100.00
7433;BME280;32233;49.500;7.764;2022-11-20T06:16:08;97916.25;;;5.24;100.00
7433;BME280;32233;49.500;7.764;2022-11-20T06:18:35;97914.25;;;5.26;100.00
7433;BME280;32233;49.500;7.764;2022-11-20T06:21:06;97917.59;;;5.20;100.00
7433;BME280;32233;49.500;7.764;2022-11-20T06:23:34;97917.78;;;5.18;100.00
7433;BME280;32233;49.500;7.764;2022-11-20T06:26:06;97916.34;;;5.16;100.00
7433;BME280;32233;49.500;7.764;2022-11-20T06:28:33;97915.34;;;5.17;100.00
7433;BME280;32233;49.500;7.764;2022-11-20T06:30:59;97906.56;;;5.10;100.00
7433;BME280;32233;49.500;7.764;2022-11-20T06:33:27;97903.84;;;5.18;100.00
7433;BME280;32233;49.500;7.764;2022-11-20T06:35:57;97905.69;;;5.32;100.00
7433;BME280;32233;49.500;7.764;2022-11-20T06:38:28;97907.31;;;5.18;100.00
7433;BME280;32233;49.500;7.764;2022-11-20T06:40:55;97906.03;;;5.29;100.00
7433;BME280;32233;49.500;7.764;2022-11-20T06:43:22;97902.41;;;5.30;100.00
7433;BME280;32233;49.500;7.764;2022-11-20T06:45:55;97907.38;;;5.25;100.00
7433;BME280;32233;49.500;7.764;2022-11-20T06:48:23;97912.06;;;5.30;100.00
7433;BME280;32233;49.500;7.764;2022-11-20T06:50:50;97916.97;;;5.33;100.00
7433;BME280;32233;49.500;7.764;2022-11-20T06:53:16;97917.78;;;5.33;100.00
7433;BME280;32233;49.500;7.764;2022-11-20T06:55:44;97927.81;;;5.30;100.00
7433;BME280;32233;49.500;7.764;2022-11-20T06:58:12;97928.91;;;5.35;100.00
7433;BME280;32233;49.500;7.764;2022-11-20T07:00:38;97929.97;;;5.26;100.00
7433;BME280;32233;49.500;7.764;2022-11-20T07:03:07;97926.38;;;5.27;100.00
7433;BME280;32233;49.500;7.764;2022-11-20T07:05:35;97926.75;;;5.39;100.00
7433;BME280;32233;49.500;7.764;2022-11-20T07:08:03;97932.97;;;5.38;100.00
7433;BME280;32233;49.500;7.764;2022-11-20T07:10:30;97926.91;;;5.37;100.00
7433;BME280;32233;49.500;7.764;2022-11-20T07:12:56;97933.41;;;5.41;100.00
7433;BME280;32233;49.500;7.764;2022-11-20T07:15:24;97924.47;;;5.36;100.00
7433;BME280;32233;49.500;7.764;2022-11-20T07:17:51;97931.53;;;5.35;100.00
7433;BME280;32233;49.500;7.764;2022-11-20T07:20:18;97936.38;;;5.38;100.00
7433;BME280;32233;49.500;7.764;2022-11-20T07:22:45;97932.97;;;5.38;100.00
7433;BME280;32233;49.500;7.764;2022-11-20T07:25:11;97939.91;;;5.45;100.00
7433;BME280;32233;49.500;7.764;2022-11-20T07:27:38;97929.53;;;5.37;100.00
7433;BME280;32233;49.500;7.764;2022-11-20T07:30:05;97931.78;;;5.40;100.00
7433;BME280;32233;49.500;7.764;2022-11-20T07:32:32;97940.00;;;5.37;100.00
7433;BME280;32233;49.500;7.764;2022-11-20T07:34:58;97942.44;;;5.24;100.00
7433;BME280;32233;49.500;7.764;2022-11-20T07:37:25;97941.38;;;5.33;100.00
7433;BME280;32233;49.500;7.764;2022-11-20T07:39:52;97945.25;;;5.37;100.00
7433;BME280;32233;49.500;7.764;2022-11-20T07:42:18;97945.63;;;5.49;100.00
7433;BME280;32233;49.500;7.764;2022-11-20T07:44:45;97952.31;;;5.52;100.00
7433;BME280;32233;49.500;7.764;2022-11-20T07:47:11;97940.19;;;5.65;100.00
7433;BME280;32233;49.500;7.764;2022-11-20T07:49:38;97953.84;;;5.76;100.00
7433;BME280;32233;49.500;7.764;2022-11-20T07:52:04;97960.53;;;5.78;100.00
7433;BME280;32233;49.500;7.764;2022-11-20T07:54:31;97960.34;;;5.80;100.00
7433;BME280;32233;49.500;7.764;2022-11-20T07:56:58;97960.00;;;5.68;100.00
7433;BME280;32233;49.500;7.764;2022-11-20T07:59:24;97956.63;;;5.89;100.00
7433;BME280;32233;49.500;7.764;2022-11-20T08:01:51;97955.75;;;5.97;100.00
7433;BME280;32233;49.500;7.764;2022-11-20T08:04:17;97962.25;;;6.01;100.00
7433;BME280;32233;49.500;7.764;2022-11-20T08:06:44;97962.97;;;5.94;100.00
7433;BME280;32233;49.500;7.764;2022-11-20T08:09:10;97961.25;;;6.02;100.00
7433;BME280;32233;49.500;7.764;2022-11-20T08:11:37;97968.03;;;5.81;100.00
7433;BME280;32233;49.500;7.764;2022-11-20T08:14:22;97967.13;;;5.89;100.00
7433;BME280;32233;49.500;7.764;2022-11-20T08:16:49;97975.72;;;5.98;100.00
7433;BME280;32233;49.500;7.764;2022-11-20T08:19:17;97976.44;;;6.06;100.00
7433;BME280;32233;49.500;7.764;2022-11-20T08:21:44;97982.44;;;6.00;100.00
7433;BME280;32233;49.500;7.764;2022-11-20T08:24:11;97979.41;;;6.03;100.00
7433;BME280;32233;49.500;7.764;2022-11-20T08:26:38;97986.84;;;6.00;100.00
7433;BME280;32233;49.500;7.764;2022-11-20T08:29:06;97989.47;;;6.00;100.00
7433;BME280;32233;49.500;7.764;2022-11-20T08:31:32;97986.84;;;6.00;100.00
7433;BME280;32233;49.500;7.764;2022-11-20T08:33:59;97982.84;;;6.04;100.00
7433;BME280;32233;49.500;7.764;2022-11-20T08:36:25;97991.47;;;5.98;100.00
7433;BME280;32233;49.500;7.764;2022-11-20T08:38:54;97993.88;;;6.14;100.00
7433;BME280;32233;49.500;7.764;2022-11-20T08:41:21;97989.19;;;6.09;100.00
7433;BME280;32233;49.500;7.764;2022-11-20T08:43:59;97991.47;;;5.98;100.00
7433;BME280;32233;49.500;7.764;2022-11-20T08:46:34;97998.19;;;6.00;100.00
7433;BME280;32233;49.500;7.764;2022-11-20T08:49:01;97999.69;;;6.09;100.00
7433;BME280;32233;49.500;7.764;2022-11-20T08:51:28;98002.00;;;6.19;100.00
7433;BME280;32233;49.500;7.764;2022-11-20T08:53:54;98003.47;;;6.22;100.00
7433;BME280;32233;49.500;7.764;2022-11-20T08:56:21;97998.22;;;6.22;100.00
7433;BME280;32233;49.500;7.764;2022-11-20T08:58:49;98003.09;;;6.25;100.00
7433;BME280;32233;49.500;7.764;2022-11-20T09:01:36;98008.78;;;6.28;100.00
7433;BME280;32233;49.500;7.764;2022-11-20T09:04:02;98007.25;;;6.19;100.00
7433;BME280;32233;49.500;7.764;2022-11-20T09:06:30;98004.75;;;6.11;100.00
7433;BME280;32233;49.500;7.764;2022-11-20T09:08:57;98004.59;;;6.12;100.00
7433;BME280;32233;49.500;7.764;2022-11-20T09:11:28;98006.53;;;6.25;100.00
7433;BME280;32233;49.500;7.764;2022-11-20T09:13:55;98011.69;;;6.33;100.00
7433;BME280;32233;49.500;7.764;2022-11-20T09:16:21;98014.13;;;6.35;100.00
7433;BME280;32233;49.500;7.764;2022-11-20T09:18:49;98021.28;;;6.26;100.00
7433;BME280;32233;49.500;7.764;2022-11-20T09:21:37;98008.47;;;6.16;100.00
7433;BME280;32233;49.500;7.764;2022-11-20T09:24:04;98013.06;;;6.14;100.00
7433;BME280;32233;49.500;7.764;2022-11-20T09:26:31;98008.19;;;6.11;100.00
7433;BME280;32233;49.500;7.764;2022-11-20T09:28:57;98001.59;;;6.01;100.00
7433;BME280;32233;49.500;7.764;2022-11-20T09:31:25;98003.22;;;6.02;100.00
7433;BME280;32233;49.500;7.764;2022-11-20T09:33:52;98009.88;;;6.19;100.00
7433;BME280;32233;49.500;7.764;2022-11-20T09:36:18;98003.38;;;6.15;100.00
7433;BME280;32233;49.500;7.764;2022-11-20T09:38:46;98013.25;;;6.13;100.00
7433;BME280;32233;49.500;7.764;2022-11-20T09:41:42;98011.97;;;6.24;100.00
7433;BME280;32233;49.500;7.764;2022-11-20T09:47:00;98015.72;;;6.36;100.00
7433;BME280;32233;49.500;7.764;2022-11-20T09:52:41;98028.19;;;6.49;100.00
7433;BME280;32233;49.500;7.764;2022-11-20T09:55:13;98026.63;;;6.33;100.00
7433;BME280;32233;49.500;7.764;2022-11-20T09:57:43;98032.28;;;6.36;100.00
7433;BME280;32233;49.500;7.764;2022-11-20T10:00:12;98027.38;;;6.48;100.00
7433;BME280;32233;49.500;7.764;2022-11-20T10:05:46;98025.31;;;6.43;100.00
7433;BME280;32233;49.500;7.764;2022-11-20T10:08:20;98016.47;;;6.66;100.00
7433;BME280;32233;49.500;7.764;2022-11-20T10:11:04;98029.94;;;7.83;100.00
7433;BME280;32233;49.500;7.764;2022-11-20T10:14:13;98014.09;;;8.59;100.00
7433;BME280;32233;49.500;7.764;2022-11-20T10:22:39;98014.03;;;7.98;100.00
7433;BME280;32233;49.500;7.764;2022-11-20T10:25:18;98010.47;;;8.12;100.00
7433;BME280;32233;49.500;7.764;2022-11-20T10:30:49;98002.19;;;8.97;92.04
7433;BME280;32233;49.500;7.764;2022-11-20T10:33:22;97997.31;;;10.18;88.52
7433;BME280;32233;49.500;7.764;2022-11-20T10:38:40;97992.09;;;10.05;87.42
7433;BME280;32233;49.500;7.764;2022-11-20T10:41:15;97987.38;;;9.29;86.71
7433;BME280;32233;49.500;7.764;2022-11-20T10:47:04;97989.41;;;9.00;93.55
7433;BME280;32233;49.500;7.764;2022-11-20T10:49:33;97975.81;;;8.97;92.49
7433;BME280;32233;49.500;7.764;2022-11-20T10:52:11;97977.41;;;10.29;89.95
7433;BME280;32233;49.500;7.764;2022-11-20T10:55:01;97968.56;;;10.48;81.94
7433;BME280;32233;49.500;7.764;2022-11-20T10:57:50;97965.13;;;9.96;84.70
7433;BME280;32233;49.500;7.764;2022-11-20T11:00:18;97966.78;;;10.74;79.79
7433;BME280;32233;49.500;7.764;2022-11-20T11:02:49;97963.00;;;10.56;78.89
7433;BME280;32233;49.500;7.764;2022-11-20T11:05:31;97975.16;;;9.54;82.04
7433;BME280;32233;49.500;7.764;2022-11-20T11:08:00;97963.41;;;10.91;75.87
7433;BME280;32233;49.500;7.764;2022-11-20T11:10:48;97946.66;;;10.98;74.84
7433;BME280;32233;49.500;7.764;2022-11-20T11:13:25;97953.16;;;11.45;73.03
7433;BME280;32233;49.500;7.764;2022-11-20T11:15:53;97952.44;;;11.75;68.70
7433;BME280;32233;49.500;7.764;2022-11-20T11:20:55;97946.47;;;11.43;67.56
7433;BME280;32233;49.500;7.764;2022-11-20T11:23:42;97946.91;;;10.33;71.21
7433;BME280;32233;49.500;7.764;2022-11-20T11:26:22;97951.19;;;9.76;71.66
7433;BME280;32233;49.500;7.764;2022-11-20T11:29:03;97952.06;;;9.43;75.66
7433;BME280;32233;49.500;7.764;2022-11-20T11:31:32;97950.28;;;8.97;78.75
7433;BME280;32233;49.500;7.764;2022-11-20T11:34:07;97941.53;;;9.16;80.18
7433;BME280;32233;49.500;7.764;2022-11-20T11:36:34;97936.47;;;9.28;77.87
7433;BME280;32233;49.500;7.764;2022-11-20T11:39:03;97931.13;;;10.13;71.85
7433;BME280;32233;49.500;7.764;2022-11-20T11:41:33;97932.59;;;9.44;75.92
7433;BME280;32233;49.500;7.764;2022-11-20T11:44:25;97929.97;;;8.38;79.95
7433;BME280;32233;49.500;7.764;2022-11-20T11:47:29;97930.53;;;8.33;81.83
7433;BME280;32233;49.500;7.764;2022-11-20T11:52:55;97929.97;;;8.51;76.74
7433;BME280;32233;49.500;7.764;2022-11-20T11:55:39;97927.75;;;8.55;74.60
7433;BME280;32233;49.500;7.764;2022-11-20T11:58:40;97929.50;;;8.34;76.55
7433;BME280;32233;49.500;7.764;2022-11-20T12:01:38;97928.03;;;8.12;78.64
7433;BME280;32233;49.500;7.764;2022-11-20T12:04:36;97916.50;;;8.13;79.00
7433;BME280;32233;49.500;7.764;2022-11-20T12:07:11;97920.25;;;8.52;76.08
7433;BME280;32233;49.500;7.764;2022-11-20T12:10:01;97920.06;;;8.53;77.06
7433;BME280;32233;49.500;7.764;2022-11-20T12:12:34;97918.91;;;8.08;80.61
7433;BME280;32233;49.500;7.764;2022-11-20T12:15:04;97915.97;;;7.76;79.47
7433;BME280;32233;49.500;7.764;2022-11-20T12:17:30;97917.13;;;7.67;82.50
7433;BME280;32233;49.500;7.764;2022-11-20T12:19:57;97914.53;;;7.74;85.74
7433;BME280;32233;49.500;7.764;2022-11-20T12:22:38;97916.34;;;7.73;85.97
7433;BME280;32233;49.500;7.764;2022-11-20T12:28:28;97908.38;;;8.01;82.72
7433;BME280;32233;49.500;7.764;2022-11-20T12:31:50;97906.78;;;8.20;84.16
7433;BME280;32233;49.500;7.764;2022-11-20T12:34:31;97904.16;;;8.27;83.53
7433;BME280;32233;49.500;7.764;2022-11-20T12:39:42;97893.72;;;8.53;83.00
7433;BME280;32233;49.500;7.764;2022-11-20T12:47:45;97886.84;;;7.84;85.99
7433;BME280;32233;49.500;7.764;2022-11-20T12:56:02;97892.69;;;7.73;84.08
7433;BME280;32233;49.500;7.764;2022-11-20T13:01:15;97890.34;;;7.50;87.13
7433;BME280;32233;49.500;7.764;2022-11-20T13:04:14;97893.63;;;7.59;86.97
7433;BME280;32233;49.500;7.764;2022-11-20T13:06:44;97886.94;;;7.56;84.17
7433;BME280;32233;49.500;7.764;2022-11-20T13:09:15;97886.13;;;7.56;82.59
7433;BME280;32233;49.500;7.764;2022-11-20T13:14:42;97875.88;;;7.67;81.46
7433;BME280;32233;49.500;7.764;2022-11-20T13:17:28;97873.50;;;7.86;79.16
7433;BME280;32233;49.500;7.764;2022-11-20T13:19:58;97869.66;;;7.95;78.16
7433;BME280;32233;49.500;7.764;2022-11-20T13:22:48;97859.75;;;7.97;76.42
7433;BME280;32233;49.500;7.764;2022-11-20T13:27:57;97867.22;;;7.87;74.80
7433;BME280;32233;49.500;7.764;2022-11-20T13:30:25;97866.16;;;7.68;72.66
7433;BME280;32233;49.500;7.764;2022-11-20T13:32:57;97858.81;;;7.57;75.68
7433;BME280;32233;49.500;7.764;2022-11-20T13:38:07;97847.69;;;7.61;75.51
7433;BME280;32233;49.500;7.764;2022-11-20T13:40:37;97846.31;;;7.65;76.12
7433;BME280;32233;49.500;7.764;2022-11-20T13:43:16;97840.44;;;7.63;74.81
7433;BME280;32233;49.500;7.764;2022-11-20T13:46:00;97838.16;;;7.54;75.19
7433;BME280;32233;49.500;7.764;2022-11-20T13:48:42;97830.81;;;7.36;73.53
7433;BME280;32233;49.500;7.764;2022-11-20T14:01:50;97817.13;;;7.47;74.67
7433;BME280;32233;49.500;7.764;2022-11-20T14:04:26;97815.69;;;7.44;76.11
7433;BME280;32233;49.500;7.764;2022-11-20T14:06:53;97811.81;;;7.40;75.63
7433;BME280;32233;49.500;7.764;2022-11-20T14:09:32;97818.25;;;7.31;74.49
7433;BME280;32233;49.500;7.764;2022-11-20T14:12:02;97815.31;;;7.06;75.35
7433;BME280;32233;49.500;7.764;2022-11-20T14:14:30;97817.78;;;7.14;77.41
7433;BME280;32233;49.500;7.764;2022-11-20T14:17:08;97810.72;;;7.15;76.13
7433;BME280;32233;49.500;7.764;2022-11-20T14:19:44;97804.81;;;7.13;77.80
7433;BME280;32233;49.500;7.764;2022-11-20T14:24:59;97805.78;;;7.05;78.37
7433;BME280;32233;49.500;7.764;2022-11-20T14:27:26;97808.56;;;6.97;79.09
7433;BME280;32233;49.500;7.764;2022-11-20T14:29:53;97803.31;;;6.97;79.01
7433;BME280;32233;49.500;7.764;2022-11-20T14:32:29;97800.09;;;6.95;79.42
7433;BME280;32233;49.500;7.764;2022-11-20T14:35:00;97796.22;;;6.91;78.70
7433;BME280;32233;49.500;7.764;2022-11-20T14:37:32;97791.78;;;6.91;78.49
7433;BME280;32233;49.500;7.764;2022-11-20T14:40:00;97781.81;;;6.80;83.24
7433;BME280;32233;49.500;7.764;2022-11-20T14:42:28;97786.41;;;6.72;80.82
7433;BME280;32233;49.500;7.764;2022-11-20T14:44:56;97778.94;;;6.75;80.92
7433;BME280;32233;49.500;7.764;2022-11-20T14:47:26;97777.28;;;6.67;80.96
7433;BME280;32233;49.500;7.764;2022-11-20T14:49:54;97774.84;;;6.66;82.24